Time;durP1;ratioP1;P1;durP2;ratioP2;P2;SDS_P1;SDS_P2;PMS_P1;PMS_P2;Temp;Humidity;BMP_temperature;BMP_pressure;BME280_temperature;BME280_humidity;BME280_pressure;Samples;Min_cycle;Max_cycle;Signal;HPM_P1;HPM_P2
2022/06/03 00:00:07;;;;;;;3.00;2.60;;;;;;;13.00;82.85;99417.16;104671;1273;75778;-25
2022/06/03 00:03:22;;;;;;;4.20;1.90;;;;;;;12.76;83.82;99419.53;104678;1273;74096;-25
2022/06/03 00:05:52;;;;;;;3.40;2.10;;;;;;;13.06;82.57;99422.73;104349;1273;61432;-25
2022/06/03 00:08:50;;;;;;;3.20;2.60;;;;;;;13.02;82.43;99429.46;104725;1273;63401;-25
2022/06/03 00:11:59;;;;;;;3.10;2.70;;;;;;;12.86;82.95;99431.71;104749;1271;75449;-25
2022/06/03 00:14:48;;;;;;;7.80;3.30;;;;;;;12.60;83.89;99447.09;104805;1273;77153;-25
2022/06/03 00:17:28;;;;;;;3.10;1.90;;;;;;;12.51;84.76;99451.67;104585;1271;75627;-25
2022/06/03 00:20:34;;;;;;;2.70;2.40;;;;;;;13.04;82.48;99450.55;104763;1273;61212;-25
2022/06/03 00:23:35;;;;;;;3.20;2.50;;;;;;;13.13;81.69;99444.76;104646;1273;62260;-25
2022/06/03 00:26:30;;;;;;;3.00;2.70;;;;;;;12.89;82.44;99448.34;104677;1271;75495;-25
2022/06/03 00:29:09;;;;;;;4.30;3.30;;;;;;;12.62;83.81;99448.67;104742;1271;75899;-25
2022/06/03 00:31:54;;;;;;;2.10;1.80;;;;;;;12.50;84.46;99452.33;104735;1270;74311;-25
2022/06/03 00:34:55;;;;;;;2.20;1.90;;;;;;;12.99;82.69;99455.51;104454;1273;63207;-25
2022/06/03 00:37:38;;;;;;;4.90;2.40;;;;;;;13.29;81.02;99456.27;104398;1273;62572;-25
2022/06/03 00:40:28;;;;;;;3.90;2.50;;;;;;;13.17;81.34;99461.52;104615;1273;75550;-25
2022/06/03 00:43:01;;;;;;;6.10;3.00;;;;;;;12.90;82.27;99461.01;104714;1272;77341;-24
2022/06/03 00:45:41;;;;;;;1.60;1.30;;;;;;;12.76;83.27;99466.17;104730;1272;75394;-25
2022/06/03 00:48:30;;;;;;;4.00;1.80;;;;;;;13.22;81.99;99468.20;104631;1273;61782;-25
2022/06/03 00:51:02;;;;;;;2.70;2.40;;;;;;;13.77;79.91;99476.11;104823;1271;63282;-24
2022/06/03 00:53:55;;;;;;;2.70;2.10;;;;;;;13.76;79.24;99479.17;104746;1273;77062;-25
2022/06/03 00:56:44;;;;;;;3.00;2.50;;;;;;;13.46;79.88;99481.55;105032;1273;74824;-25
2022/06/03 00:59:47;;;;;;;3.30;3.00;;;;;;;13.12;81.05;99476.42;105091;1273;75421;-24
2022/06/03 01:03:03;;;;;;;3.10;1.80;;;;;;;12.88;82.60;99475.62;105063;1273;62614;-25
2022/06/03 01:05:58;;;;;;;4.70;2.20;;;;;;;13.51;80.44;99473.77;105043;1273;63178;-25
2022/06/03 01:08:48;;;;;;;4.60;2.60;;;;;;;13.66;79.41;99475.90;105055;1273;75744;-25
2022/06/03 01:11:15;;;;;;;2.90;2.40;;;;;;;13.38;80.04;99476.64;104854;1271;75843;-25
2022/06/03 01:14:24;;;;;;;3.50;3.00;;;;;;;13.16;80.49;99473.80;104940;1270;75452;-24
2022/06/03 01:17:13;;;;;;;3.40;2.80;;;;;;;12.85;81.42;99471.86;104351;1280;63098;-24
2022/06/03 01:20:37;;;;;;;3.50;1.60;;;;;;;12.66;82.63;99475.55;104231;1277;63024;-25
2022/06/03 01:23:05;;;;;;;2.20;1.80;;;;;;;13.44;80.28;99475.23;104319;1273;75622;-25
2022/06/03 01:25:44;;;;;;;3.80;2.40;;;;;;;13.70;78.55;99482.58;104699;1273;75967;-25
2022/06/03 01:28:22;;;;;;;2.90;2.40;;;;;;;13.57;78.44;99482.87;104611;1273;75782;-25
2022/06/03 01:31:14;;;;;;;3.40;2.90;;;;;;;13.32;79.05;99485.91;104703;1273;62093;-25
2022/06/03 01:34:00;;;;;;;3.90;3.50;;;;;;;12.92;80.77;99494.64;104784;1274;61963;-24
2022/06/03 01:37:01;;;;;;;2.10;1.40;;;;;;;12.74;81.36;99497.39;104835;1273;76402;-24
2022/06/03 01:39:47;;;;;;;2.30;1.90;;;;;;;13.42;79.94;99501.25;104689;1273;75917;-24
2022/06/03 01:42:32;;;;;;;5.50;2.40;;;;;;;13.66;78.14;99507.89;104617;1273;74389;-25
2022/06/03 01:45:08;;;;;;;7.00;2.90;;;;;;;13.61;78.70;99515.54;105027;1272;61858;-24
2022/06/03 01:48:11;;;;;;;2.60;2.40;;;;;;;13.38;78.78;99514.84;104697;1273;61826;-23
2022/06/03 01:51:14;;;;;;;4.40;3.10;;;;;;;13.10;79.72;99521.58;104680;1270;76730;-23
2022/06/03 01:53:44;;;;;;;2.10;1.90;;;;;;;12.88;80.63;99527.04;104677;1270;77122;-24
2022/06/03 01:56:29;;;;;;;5.20;2.60;;;;;;;13.46;79.69;99528.65;104590;1273;74403;-25
2022/06/03 01:59:16;;;;;;;3.90;3.40;;;;;;;13.88;77.82;99532.71;104722;1270;61786;-24
2022/06/03 02:02:10;;;;;;;3.40;3.10;;;;;;;13.71;78.05;99532.58;104738;1273;62774;-25
2022/06/03 02:04:44;;;;;;;4.90;3.30;;;;;;;13.52;78.38;99535.11;104877;1270;76564;-25
2022/06/03 02:07:24;;;;;;;6.90;3.70;;;;;;;13.34;78.79;99531.23;104890;1270;75751;-24
2022/06/03 02:09:57;;;;;;;4.00;1.60;;;;;;;13.14;79.16;99534.95;104638;1274;74603;-24
2022/06/03 02:12:51;;;;;;;;;;;;;;;13.54;78.66;99536.48;104973;1271;63193;-24
2022/06/03 02:15:27;;;;;;;3.50;3.10;;;;;;;13.94;77.75;99539.88;104832;1271;61386;-24
2022/06/03 02:18:17;;;;;;;4.70;3.70;;;;;;;13.89;77.29;99540.34;104632;1270;76619;-26
2022/06/03 02:20:54;;;;;;;9.40;4.20;;;;;;;13.05;80.60;99551.74;104524;1270;77146;-24
2022/06/03 02:23:40;;;;;;;5.90;4.10;;;;;;;12.82;82.19;99550.66;104915;1270;74629;-24
2022/06/03 02:26:27;;;;;;;3.70;2.60;;;;;;;12.03;85.31;99550.09;105080;1270;62593;-24
2022/06/03 02:32:39;;;;;;;8.80;4.10;;;;;;;12.84;82.46;99545.70;104699;1270;76293;-24
2022/06/03 02:35:54;;;;;;;3.80;3.50;;;;;;;12.60;83.52;99554.08;105003;1270;77082;-24
2022/06/03 02:38:56;;;;;;;3.90;3.60;;;;;;;12.71;82.86;99558.38;105060;1272;75777;-24
2022/06/03 02:41:58;;;;;;;2.90;2.10;;;;;;;12.64;83.40;99559.47;104969;1271;63413;-24
2022/06/03 02:45:00;;;;;;;7.00;3.40;;;;;;;13.39;80.96;99555.02;104642;1273;62111;-24
2022/06/03 02:48:25;;;;;;;3.90;3.60;;;;;;;13.57;79.55;99553.39;104652;1273;75669;-24
2022/06/03 02:51:39;;;;;;;8.20;3.50;;;;;;;13.40;79.88;99559.34;104629;1274;77126;-24
2022/06/03 02:54:24;;;;;;;4.20;3.30;;;;;;;13.02;81.41;99569.29;104948;1270;75766;-24
2022/06/03 02:57:33;;;;;;;2.90;2.30;;;;;;;13.00;81.67;99566.80;104708;1274;63663;-24
2022/06/03 03:00:17;;;;;;;5.00;3.20;;;;;;;13.64;79.53;99572.61;104964;1270;62815;-24
2022/06/03 03:03:19;;;;;;;4.00;2.90;;;;;;;14.01;77.78;99574.35;104759;1271;76591;-24
2022/06/03 03:05:57;;;;;;;9.50;6.00;;;;;;;13.95;77.20;99581.30;104981;1273;75394;-24
2022/06/03 03:08:27;;;;;;;8.40;6.30;;;;;;;13.76;78.14;99581.58;104977;1271;72663;-24
2022/06/03 03:11:04;;;;;;;6.80;5.40;;;;;;;13.54;78.63;99587.64;105002;1271;62115;-24
2022/06/03 03:13:56;;;;;;;3.90;3.20;;;;;;;13.33;79.67;99590.19;104987;1270;61077;-24
2022/06/03 03:16:38;;;;;;;5.60;4.70;;;;;;;13.69;78.44;99593.68;104989;1270;77035;-24
2022/06/03 03:19:40;;;;;;;8.10;5.90;;;;;;;14.14;77.19;99602.55;104886;1271;77081;-24
2022/06/03 03:22:26;;;;;;;8.50;6.70;;;;;;;14.05;76.89;99605.10;104724;1270;368971;-24
2022/06/03 03:24:53;;;;;;;5.00;4.00;;;;;;;13.11;80.22;99607.71;104631;1274;62072;-23
2022/06/03 03:28:02;;;;;;;4.30;3.90;;;;;;;13.09;81.08;99608.95;104681;1271;61975;-23
2022/06/03 03:30:49;;;;;;;2.60;2.40;;;;;;;13.14;81.32;99614.13;104676;1270;76440;-23
2022/06/03 03:33:19;;;;;;;4.20;2.70;;;;;;;13.94;78.78;99612.33;104803;1270;77061;-24
2022/06/03 03:36:06;;;;;;;5.10;3.50;;;;;;;14.02;77.24;99613.89;104782;1273;75454;-23
2022/06/03 03:38:39;;;;;;;4.00;3.60;;;;;;;14.04;77.34;99615.98;104697;1271;63084;-24
2022/06/03 03:41:18;;;;;;;5.40;4.20;;;;;;;13.77;78.24;99622.66;104600;1275;61901;-23
2022/06/03 03:44:03;;;;;;;7.80;3.30;;;;;;;13.51;79.30;99623.13;104690;1270;76647;-24
2022/06/03 03:46:50;;;;;;;2.90;2.30;;;;;;;13.39;79.90;99620.91;104615;1274;76774;-24
2022/06/03 03:49:35;;;;;;;4.20;3.10;;;;;;;13.91;78.25;99622.00;104797;1272;75120;-23
2022/06/03 03:52:06;;;;;;;3.70;3.20;;;;;;;14.08;76.90;99621.36;105011;1271;62134;-23
2022/06/03 03:54:39;;;;;;;7.40;3.40;;;;;;;14.06;77.68;99627.88;104751;1273;63143;-24
2022/06/03 03:57:09;;;;;;;;;;;;;;;13.83;78.23;99629.42;104628;1271;75388;-24
2022/06/03 04:00:15;;;;;;;5.60;4.50;;;;;;;13.64;78.96;99634.89;104718;1272;76971;-23
2022/06/03 04:02:50;;;;;;;3.50;2.10;;;;;;;13.19;81.23;99634.25;105103;1270;75553;-24
2022/06/03 04:05:31;;;;;;;3.60;3.10;;;;;;;13.99;78.06;99632.33;104544;1274;63184;-24
2022/06/03 04:08:05;;;;;;;5.40;3.30;;;;;;;13.94;77.13;99633.41;104689;1274;63131;-24
2022/06/03 04:11:01;;;;;;;3.80;3.20;;;;;;;14.04;76.99;99631.19;104584;1275;76618;-24
2022/06/03 04:14:00;;;;;;;5.70;3.60;;;;;;;14.00;77.85;99632.03;104647;1273;75851;-24
2022/06/03 04:16:40;;;;;;;4.40;3.80;;;;;;;13.83;78.27;99640.67;104612;1273;74370;-24
2022/06/03 04:19:28;;;;;;;2.40;2.00;;;;;;;13.77;78.44;99639.05;104556;1274;62837;-23
2022/06/03 04:21:58;;;;;;;4.40;3.60;;;;;;;14.24;76.42;99641.46;104609;1274;62127;-24
2022/06/03 04:24:47;;;;;;;3.50;2.90;;;;;;;14.43;76.10;99647.04;104629;1271;75621;-24
2022/06/03 04:27:46;;;;;;;5.60;3.00;;;;;;;14.81;74.48;99651.19;104989;1273;76053;-24
2022/06/03 04:30:23;;;;;;;3.40;3.00;;;;;;;14.76;75.04;99656.40;104959;1271;74077;-24
2022/06/03 04:32:59;;;;;;;4.60;3.70;;;;;;;14.57;75.26;99659.77;104659;1272;61912;-23
2022/06/03 04:36:09;;;;;;;5.40;4.20;;;;;;;14.22;75.97;99659.81;104732;1271;62003;-24
2022/06/03 04:38:58;;;;;;;3.10;2.80;;;;;;;13.53;78.37;99666.90;104595;1271;75346;-23
2022/06/03 04:41:38;;;;;;;8.70;6.70;;;;;;;14.06;77.07;99675.35;105100;1271;77108;-24
2022/06/03 04:44:27;;;;;;;20.90;14.60;;;;;;;14.80;73.80;99673.80;104974;1273;75437;-24
2022/06/03 04:48:40;;;;;;;8.20;4.70;;;;;;;15.53;72.27;99677.72;101687;1310;599596;-23
2022/06/03 04:51:38;;;;;;;7.30;5.00;;;;;;;15.59;72.91;99676.39;104252;1284;61842;-23
2022/06/03 04:54:45;;;;;;;3.40;2.90;;;;;;;15.95;68.88;99675.16;104319;1284;62108;-23
2022/06/03 04:57:37;;;;;;;7.20;3.10;;;;;;;15.72;68.49;99682.38;103701;1287;73014;-23
2022/06/03 05:01:02;;;;;;;4.80;3.10;;;;;;;15.50;69.92;99687.98;104184;1286;77152;-23
2022/06/03 05:03:57;;;;;;;3.80;2.10;;;;;;;15.74;69.89;99691.96;103499;1290;70582;-23
2022/06/03 05:06:47;;;;;;;5.60;2.20;;;;;;;16.88;66.68;99692.80;103758;1289;61848;-23
2022/06/03 05:09:33;;;;;;;2.50;2.30;;;;;;;17.64;64.32;99688.27;105131;1271;62031;-23
2022/06/03 05:12:38;;;;;;;2.70;2.20;;;;;;;17.66;63.22;99692.19;105033;1271;73643;-23
2022/06/03 05:15:34;;;;;;;3.90;2.70;;;;;;;17.68;62.40;99689.86;105155;1271;76924;-24
2022/06/03 05:18:01;;;;;;;2.80;2.60;;;;;;;17.22;63.49;99694.56;104756;1271;75374;-23
2022/06/03 05:20:35;;;;;;;3.30;3.00;;;;;;;17.05;64.01;99700.25;104990;1271;61624;-23
2022/06/03 05:23:31;;;;;;;3.00;2.70;;;;;;;16.94;66.54;99703.77;105102;1271;61419;-23
2022/06/03 05:26:14;;;;;;;4.50;2.50;;;;;;;17.10;66.70;99705.71;104941;1271;74810;-23
2022/06/03 05:29:01;;;;;;;;;;;;;;;17.15;64.90;99703.31;104762;1271;75940;-23
2022/06/03 05:31:47;;;;;;;3.60;3.10;;;;;;;17.11;64.53;99702.50;105135;1271;75396;-23
2022/06/03 05:34:27;;;;;;;4.00;2.30;;;;;;;17.35;64.33;99703.67;104987;1270;62061;-23
2022/06/03 05:36:57;;;;;;;6.30;4.40;;;;;;;17.49;64.51;99702.48;104948;1271;62133;-23
2022/06/03 05:40:02;;;;;;;4.10;3.50;;;;;;;17.39;63.33;99702.35;104778;1271;75061;-23
2022/06/03 05:42:35;;;;;;;6.10;2.80;;;;;;;17.06;64.23;99702.81;104842;1271;75783;-23
2022/06/03 05:45:37;;;;;;;3.50;2.50;;;;;;;17.58;64.81;99704.53;104726;1274;74373;-23
2022/06/03 05:48:16;;;;;;;3.30;2.90;;;;;;;17.62;63.36;99704.61;104786;1271;62366;-23
2022/06/03 05:50:56;;;;;;;5.80;2.60;;;;;;;17.58;62.07;99704.48;104796;1271;61967;-23
2022/06/03 05:53:44;;;;;;;3.30;2.30;;;;;;;17.74;61.75;99699.94;104603;1274;73728;-23
2022/06/03 05:56:21;;;;;;;3.20;2.60;;;;;;;17.72;62.93;99702.29;104749;1271;77393;-23
2022/06/03 05:59:28;;;;;;;3.80;2.70;;;;;;;17.59;63.52;99699.68;104782;1274;75420;-23
2022/06/03 06:02:23;;;;;;;4.00;3.10;;;;;;;17.61;63.28;99700.92;104671;1274;61964;-23
2022/06/03 06:05:02;;;;;;;3.50;2.40;;;;;;;17.79;62.33;99699.49;104825;1274;63003;-23
2022/06/03 06:07:51;;;;;;;6.90;4.20;;;;;;;17.96;62.11;99697.41;104792;1274;74447;-23
2022/06/03 06:10:22;;;;;;;3.90;2.50;;;;;;;18.16;62.03;99698.92;104723;1274;77307;-23
2022/06/03 06:13:10;;;;;;;3.40;1.90;;;;;;;18.14;59.97;99695.77;104788;1274;74362;-23
2022/06/03 06:15:50;;;;;;;3.40;2.20;;;;;;;17.94;59.09;99692.66;105027;1274;61997;-23
2022/06/03 06:18:40;;;;;;;2.00;1.60;;;;;;;17.89;58.96;99695.95;104980;1274;61857;-23
2022/06/03 06:21:24;;;;;;;3.80;2.90;;;;;;;17.69;57.96;99696.06;105089;1273;74924;-23
2022/06/03 06:24:15;;;;;;;6.90;4.60;;;;;;;17.53;58.77;99696.80;104848;1274;76121;-25
2022/06/03 06:27:31;;;;;;;8.40;5.60;;;;;;;17.99;60.21;99691.63;104951;1272;75401;-23
2022/06/03 06:30:36;;;;;;;17.00;9.00;;;;;;;18.04;60.24;99692.66;104707;1272;61792;-24
2022/06/03 06:33:31;;;;;;;5.80;2.70;;;;;;;18.53;60.08;99689.45;105065;1274;62101;-23
2022/06/03 06:36:18;;;;;;;3.40;2.20;;;;;;;18.65;57.98;99688.72;104932;1274;75904;-23
2022/06/03 06:38:57;;;;;;;2.30;2.10;;;;;;;18.64;58.78;99688.52;105030;1274;76086;-23
2022/06/03 06:41:43;;;;;;;3.40;2.10;;;;;;;18.88;57.82;99687.23;104911;1274;75482;-24
2022/06/03 06:44:34;;;;;;;3.00;2.50;;;;;;;18.61;58.03;99685.08;105076;1274;63245;-24
2022/06/03 06:47:07;;;;;;;2.20;2.00;;;;;;;17.67;59.23;99678.86;105052;1274;62217;-24
2022/06/03 06:49:42;;;;;;;1.90;1.70;;;;;;;18.26;58.97;99682.74;104940;1274;74675;-24
2022/06/03 06:52:35;;;;;;;2.50;1.60;;;;;;;18.67;57.58;99681.27;104871;1274;76749;-24
2022/06/03 06:55:05;;;;;;;2.70;1.60;;;;;;;18.86;55.92;99683.87;104855;1274;74314;-25
2022/06/03 06:58:00;;;;;;;3.20;2.30;;;;;;;19.06;55.20;99678.79;104861;1274;61953;-24
2022/06/03 07:00:32;;;;;;;5.40;3.80;;;;;;;19.45;55.91;99682.69;104568;1274;61727;-24
2022/06/03 07:03:18;;;;;;;2.90;2.30;;;;;;;19.07;54.89;99682.31;104576;1274;74719;-24
2022/06/03 07:05:59;;;;;;;7.10;4.80;;;;;;;18.80;54.94;99682.45;104570;1273;76864;-24
2022/06/03 07:08:46;;;;;;;2.10;1.80;;;;;;;19.03;54.14;99685.84;104578;1274;74395;-24
2022/06/03 07:11:22;;;;;;;3.30;1.70;;;;;;;19.41;52.69;99686.36;104835;1273;62801;-24
2022/06/03 07:13:53;;;;;;;1.70;1.60;;;;;;;19.49;52.91;99688.96;104963;1274;62679;-24
2022/06/03 07:20:32;;;;;;;2.80;1.60;;;;;;;19.69;53.95;99699.27;105068;1274;77313;-24
2022/06/03 07:23:07;;;;;;;2.40;1.80;;;;;;;19.91;53.59;99696.98;104735;1274;75733;-24
2022/06/03 07:25:37;;;;;;;4.00;1.50;;;;;;;20.31;54.43;99701.05;104754;1273;63087;-24
2022/06/03 07:28:37;;;;;;;1.90;1.60;;;;;;;20.49;53.70;99703.46;104822;1273;62069;-24
2022/06/03 07:31:04;;;;;;;5.40;1.80;;;;;;;20.51;51.13;99702.98;104952;1274;75855;-24
2022/06/03 07:33:31;;;;;;;2.10;1.30;;;;;;;20.68;52.11;99705.30;104984;1274;76226;-24
2022/06/03 07:36:06;;;;;;;1.20;1.10;;;;;;;20.92;51.56;99702.58;105045;1274;74462;-24
2022/06/03 07:38:35;;;;;;;2.70;1.30;;;;;;;20.92;51.73;99702.46;104903;1274;63468;-24
2022/06/03 07:41:09;;;;;;;4.10;1.50;;;;;;;20.76;51.21;99700.86;105140;1274;61810;-24
2022/06/03 07:44:02;;;;;;;1.50;1.40;;;;;;;20.48;53.08;99710.38;104819;1274;74489;-24
2022/06/03 07:46:49;;;;;;;1.60;1.30;;;;;;;20.41;53.10;99714.19;105060;1274;77210;-24
2022/06/03 07:49:16;;;;;;;2.00;1.50;;;;;;;20.48;51.30;99714.09;104862;1274;74230;-24
2022/06/03 07:51:46;;;;;;;2.50;1.90;;;;;;;20.54;52.94;99714.02;105037;1274;61750;-24
2022/06/03 07:54:16;;;;;;;1.70;1.50;;;;;;;20.42;53.43;99714.57;104691;1274;63079;-24
2022/06/03 07:56:43;;;;;;;1.60;1.40;;;;;;;19.78;50.38;99717.75;104785;1273;75508;-24
2022/06/03 07:59:19;;;;;;;3.20;1.60;;;;;;;20.29;50.79;99715.69;104917;1274;76646;-24
2022/06/03 08:01:58;;;;;;;1.70;1.50;;;;;;;20.22;49.44;99719.23;104721;1274;73312;-24
2022/06/03 08:04:31;;;;;;;2.50;1.20;;;;;;;20.27;50.44;99712.52;105102;1274;63058;-24
2022/06/03 08:12:38;;;;;;;3.30;2.00;;;;;;;21.11;49.30;99726.90;104778;1274;76306;-24
2022/06/03 08:15:19;;;;;;;1.60;1.20;;;;;;;21.18;48.38;99729.00;104953;1274;75517;-24
2022/06/03 08:17:47;;;;;;;1.10;1.00;;;;;;;20.60;49.00;99723.52;104768;1274;61944;-24
2022/06/03 08:20:17;;;;;;;1.70;1.20;;;;;;;20.50;49.61;99727.39;104874;1274;61918;-24
2022/06/03 08:22:45;;;;;;;1.30;1.20;;;;;;;20.65;48.55;99730.89;104782;1274;74643;-24
2022/06/03 08:25:15;;;;;;;3.90;1.90;;;;;;;20.92;47.08;99726.11;104775;1274;75327;-24
2022/06/03 08:27:42;;;;;;;2.10;1.50;;;;;;;20.82;46.13;99725.03;104671;1274;75477;-24
2022/06/03 08:30:19;;;;;;;2.00;1.30;;;;;;;20.17;46.26;99728.25;104577;1274;61842;-24
2022/06/03 08:32:49;;;;;;;1.50;1.10;;;;;;;20.09;46.94;99729.08;104731;1274;61752;-24
2022/06/03 08:35:19;;;;;;;2.80;1.10;;;;;;;20.92;49.22;99731.20;104983;1274;74741;-23
2022/06/03 08:37:56;;;;;;;1.70;1.00;;;;;;;21.24;48.52;99731.95;104879;1274;74464;-24
2022/06/03 08:40:27;;;;;;;1.80;1.30;;;;;;;21.07;47.44;99729.67;104862;1274;75700;-24
2022/06/03 08:42:59;;;;;;;2.40;1.40;;;;;;;20.31;48.09;99729.34;104872;1274;62046;-24
2022/06/03 08:45:33;;;;;;;1.80;1.20;;;;;;;20.43;47.45;99729.32;104758;1274;62011;-24
2022/06/03 08:48:05;;;;;;;1.40;1.00;;;;;;;20.82;45.40;99729.13;104595;1274;75558;-24
2022/06/03 08:51:00;;;;;;;1.70;1.00;;;;;;;21.31;46.07;99724.25;104486;1274;77390;-24
2022/06/03 08:53:41;;;;;;;2.90;1.10;;;;;;;21.42;45.42;99726.02;104713;1274;75131;-24
2022/06/03 08:56:18;;;;;;;1.20;1.10;;;;;;;20.80;43.42;99727.83;104656;1274;62162;-24
2022/06/03 08:58:56;;;;;;;2.10;1.00;;;;;;;21.42;43.81;99731.16;104900;1274;61575;-24
2022/06/03 09:01:38;;;;;;;1.40;1.00;;;;;;;20.78;42.65;99727.66;104680;1274;75808;-24
2022/06/03 09:04:22;;;;;;;2.70;1.30;;;;;;;21.24;42.30;99727.86;104480;1274;76441;-24
2022/06/03 09:06:49;;;;;;;;;;;;;;;21.46;41.92;99727.38;104654;1274;75449;-24
2022/06/03 09:09:45;;;;;;;3.80;1.30;;;;;;;20.94;42.37;99724.26;104681;1274;61786;-24
2022/06/03 09:12:28;;;;;;;1.10;0.90;;;;;;;21.55;43.55;99724.67;104766;1274;63024;-24
2022/06/03 09:15:08;;;;;;;1.20;1.10;;;;;;;21.71;45.29;99723.73;104841;1274;76104;-24
2022/06/03 09:17:49;;;;;;;1.50;0.90;;;;;;;21.86;44.12;99728.67;104529;1273;76934;-24
2022/06/03 09:20:25;;;;;;;2.90;1.20;;;;;;;21.31;43.12;99725.02;104582;1274;74230;-24
2022/06/03 09:22:58;;;;;;;1.50;1.00;;;;;;;21.28;44.02;99728.84;104742;1274;63561;-24
2022/06/03 09:25:26;;;;;;;1.90;1.20;;;;;;;21.45;46.29;99727.81;104666;1274;61135;-25
2022/06/03 09:28:04;;;;;;;1.90;0.90;;;;;;;21.78;44.40;99733.34;104724;1274;75605;-23
2022/06/03 09:30:32;;;;;;;;;;;;;;;22.07;45.26;99723.59;104615;1274;76919;-24
2022/06/03 09:33:01;;;;;;;1.50;0.90;;;;;;;21.65;42.12;99722.43;104591;1276;73284;-23
2022/06/03 09:35:28;;;;;;;1.10;0.80;;;;;;;21.84;43.72;99729.14;104709;1274;63071;-24
2022/06/03 09:37:58;;;;;;;1.30;0.90;;;;;;;22.10;42.15;99728.18;105020;1274;62882;-24
2022/06/03 09:40:40;;;;;;;1.80;1.10;;;;;;;22.45;41.21;99731.27;104609;1273;76916;-23
2022/06/03 09:43:15;;;;;;;1.30;1.20;;;;;;;22.88;41.92;99729.60;104637;1274;76719;-23
2022/06/03 09:45:46;;;;;;;1.00;0.90;;;;;;;23.20;41.06;99729.27;104579;1274;74516;-23
2022/06/03 09:48:17;;;;;;;1.40;0.90;;;;;;;22.91;39.07;99731.67;104969;1274;63056;-24
2022/06/03 09:50:46;;;;;;;1.10;1.00;;;;;;;22.61;38.14;99733.77;104763;1274;62775;-24
2022/06/03 09:53:16;;;;;;;1.40;0.90;;;;;;;22.85;39.23;99729.08;104940;1274;76301;-23
2022/06/03 09:55:49;;;;;;;1.20;0.80;;;;;;;23.29;38.76;99731.70;104755;1274;76992;-23
2022/06/03 09:58:28;;;;;;;2.10;1.00;;;;;;;23.82;41.02;99733.17;105075;1274;74168;-24
2022/06/03 10:00:56;;;;;;;1.10;1.00;;;;;;;23.43;38.24;99731.61;104975;1274;62281;-24
2022/06/03 10:03:26;;;;;;;1.80;1.00;;;;;;;22.87;39.68;99733.81;104816;1274;61719;-24
2022/06/03 10:05:56;;;;;;;1.70;1.10;;;;;;;22.36;41.10;99741.66;104949;1274;76561;-24
2022/06/03 10:08:28;;;;;;;1.50;1.00;;;;;;;22.25;41.84;99738.45;104751;1274;74710;-23
2022/06/03 10:13:42;;;;;;;1.00;0.90;;;;;;;23.03;39.51;99734.11;105044;1274;62882;-24
2022/06/03 10:16:10;;;;;;;1.80;1.00;;;;;;;23.32;37.21;99731.38;105080;1274;61175;-24
2022/06/03 10:18:46;;;;;;;1.80;0.90;;;;;;;23.01;37.84;99731.85;104726;1274;75567;-24
2022/06/03 10:21:14;;;;;;;2.00;0.80;;;;;;;22.50;39.79;99728.39;104779;1274;77196;-25
2022/06/03 10:23:51;;;;;;;1.50;1.00;;;;;;;22.36;38.26;99727.90;104799;1274;75963;-23
2022/06/03 10:26:52;;;;;;;0.80;0.80;;;;;;;22.81;37.40;99727.21;104989;1274;62817;-23
2022/06/03 10:29:21;;;;;;;1.20;0.90;;;;;;;22.42;38.91;99726.41;105096;1274;61455;-24
2022/06/03 10:31:55;;;;;;;1.20;1.00;;;;;;;22.26;39.27;99725.58;104662;1275;76933;-23
2022/06/03 10:34:39;;;;;;;1.10;0.90;;;;;;;22.04;38.32;99727.45;104635;1274;75054;-23
2022/06/03 10:37:09;;;;;;;2.00;1.00;;;;;;;22.10;38.35;99723.70;104739;1274;73510;-24
2022/06/03 10:39:39;;;;;;;1.60;1.00;;;;;;;21.81;39.24;99722.91;105083;1274;62766;-24
2022/06/03 10:42:11;;;;;;;2.00;0.90;;;;;;;22.22;39.58;99716.77;105005;1274;61975;-24
2022/06/03 10:44:45;;;;;;;2.20;0.90;;;;;;;22.88;38.46;99714.23;104743;1274;76632;-24
2022/06/03 10:47:21;;;;;;;4.40;0.90;;;;;;;23.36;37.24;99709.36;104905;1274;76142;-23
2022/06/03 10:49:54;;;;;;;2.90;0.90;;;;;;;23.56;38.27;99713.79;104727;1273;75462;-23
2022/06/03 11:01:19;;;;;;;1.20;1.00;;;;;;;22.76;38.06;99693.40;104878;1274;76738;-24
2022/06/03 11:03:51;;;;;;;10.90;6.50;;;;;;;23.14;38.78;99689.25;104898;1274;75350;-24
2022/06/03 11:06:24;;;;;;;1.40;1.10;;;;;;;24.06;39.02;99684.51;105027;1274;62851;-24
2022/06/03 11:09:01;;;;;;;1.10;0.90;;;;;;;24.22;38.39;99682.64;104597;1274;61840;-24
2022/06/03 11:11:57;;;;;;;2.10;1.10;;;;;;;23.70;38.70;99677.31;104773;1275;75572;-24
2022/06/03 11:14:27;;;;;;;1.10;0.90;;;;;;;23.23;37.52;99678.63;104834;1274;75911;-24
2022/06/03 11:17:24;;;;;;;2.30;1.00;;;;;;;23.31;37.77;99676.17;104591;1274;71605;-23
2022/06/03 11:19:52;;;;;;;2.00;1.00;;;;;;;23.36;37.36;99679.85;104669;1274;63071;-24
2022/06/03 11:22:29;;;;;;;0.90;0.90;;;;;;;23.20;36.45;99675.42;104732;1274;61986;-24
2022/06/03 11:25:13;;;;;;;3.20;1.00;;;;;;;23.21;37.42;99670.97;104674;1274;74662;-24
2022/06/03 11:28:04;;;;;;;0.80;0.70;;;;;;;23.32;38.72;99666.49;104589;1274;75801;-24
2022/06/03 11:30:43;;;;;;;3.30;0.90;;;;;;;23.11;40.67;99665.57;105075;1274;74444;-24
2022/06/03 11:33:36;;;;;;;2.10;0.90;;;;;;;23.02;40.69;99662.69;104791;1274;62838;-24
2022/06/03 11:36:15;;;;;;;1.00;0.90;;;;;;;22.27;38.52;99660.84;105066;1274;62905;-24
2022/06/03 11:38:55;;;;;;;1.30;1.00;;;;;;;23.17;39.51;99661.98;104770;1272;76608;-24
2022/06/03 11:41:37;;;;;;;0.80;0.80;;;;;;;23.76;38.49;99665.04;104867;1275;77093;-24
2022/06/03 11:44:29;;;;;;;2.90;1.10;;;;;;;22.67;39.01;99667.54;104994;1274;75129;-24
2022/06/03 11:46:59;;;;;;;1.20;1.10;;;;;;;22.24;40.64;99667.95;104485;1277;62082;-24
2022/06/03 11:49:26;;;;;;;1.30;1.00;;;;;;;22.63;41.69;99668.52;104680;1274;63191;-24
2022/06/03 11:51:54;;;;;;;2.80;1.70;;;;;;;22.89;40.44;99665.80;104580;1274;76768;-24
2022/06/03 11:54:23;;;;;;;3.10;1.10;;;;;;;22.60;40.02;99663.69;104818;1274;75920;-24
2022/06/03 11:56:51;;;;;;;2.60;0.90;;;;;;;23.03;40.38;99664.93;104474;1275;75301;-24
2022/06/03 11:59:31;;;;;;;1.80;0.90;;;;;;;23.18;38.83;99658.39;104776;1274;62022;-24
2022/06/03 12:02:04;;;;;;;1.00;0.90;;;;;;;23.11;39.95;99654.57;104839;1274;63133;-24
2022/06/03 12:04:36;;;;;;;1.60;0.80;;;;;;;23.33;39.38;99655.88;104866;1274;75443;-24
2022/06/03 12:07:09;;;;;;;1.90;1.00;;;;;;;23.62;38.37;99652.66;104846;1274;77013;-24
2022/06/03 12:09:45;;;;;;;1.40;0.90;;;;;;;23.81;39.55;99648.30;104589;1274;74181;-25
2022/06/03 12:15:35;;;;;;;5.90;3.20;;;;;;;23.37;38.51;99643.20;104608;1275;61192;-24
2022/06/03 12:18:06;;;;;;;2.10;1.30;;;;;;;23.43;36.94;99640.19;104859;1274;76467;-25
2022/06/03 12:20:37;;;;;;;2.80;1.00;;;;;;;23.77;37.68;99640.95;104589;1274;77090;-23
2022/06/03 12:23:11;;;;;;;1.00;0.70;;;;;;;24.01;38.31;99639.32;104565;1274;74527;-24
2022/06/03 12:25:54;;;;;;;1.20;1.10;;;;;;;24.04;36.91;99638.23;104566;1273;61758;-25
2022/06/03 12:28:42;;;;;;;2.10;0.90;;;;;;;23.63;38.49;99641.30;104707;1276;61989;-23
2022/06/03 12:31:37;;;;;;;1.00;0.90;;;;;;;23.07;38.42;99643.93;104725;1274;75499;-24
2022/06/03 12:34:09;;;;;;;1.60;0.80;;;;;;;22.79;40.00;99641.65;104704;1273;76981;-24
2022/06/03 12:36:50;;;;;;;1.00;0.90;;;;;;;23.09;38.95;99638.84;104595;1274;75346;-25
2022/06/03 12:39:18;;;;;;;2.90;1.00;;;;;;;23.67;36.98;99635.71;104550;1274;61687;-25
2022/06/03 12:41:45;;;;;;;1.30;1.00;;;;;;;23.62;36.46;99634.87;104701;1276;61998;-24
2022/06/03 12:44:42;;;;;;;1.90;1.00;;;;;;;22.98;36.58;99636.38;104699;1276;76496;-25
2022/06/03 12:47:35;;;;;;;2.30;1.00;;;;;;;23.67;37.68;99629.36;104967;1273;77514;-25
2022/06/03 12:50:05;;;;;;;1.10;0.80;;;;;;;24.31;38.89;99629.17;104962;1274;74366;-25
2022/06/03 12:52:35;;;;;;;7.90;4.60;;;;;;;24.35;37.05;99625.16;104730;1274;61025;-24
2022/06/03 12:55:13;;;;;;;16.30;9.10;;;;;;;24.48;38.93;99627.95;105007;1274;63165;-25
2022/06/03 12:57:51;;;;;;;1.60;1.20;;;;;;;24.82;37.03;99624.27;104726;1274;76338;-25
2022/06/03 13:00:18;;;;;;;1.90;1.40;;;;;;;24.18;34.91;99621.95;104770;1275;77153;-25
2022/06/03 13:02:57;;;;;;;6.20;3.20;;;;;;;24.43;36.51;99618.39;104890;1274;74217;-25
2022/06/03 13:05:34;;;;;;;1.80;1.30;;;;;;;25.10;35.04;99618.56;104826;1274;62214;-25